createdAt,value
2023-01-21T00:01:26.051Z,158825.78
2023-01-21T00:04:30.116Z,158833.59
2023-01-21T00:07:34.065Z,158834.91
2023-01-21T00:10:38.493Z,158841.41
2023-01-21T00:13:44.518Z,158838.81
2023-01-21T00:16:48.665Z,158821.91
2023-01-21T00:19:52.625Z,158827.13
2023-01-21T00:22:56.890Z,158825.78
2023-01-21T00:26:02.115Z,158838.81
2023-01-21T00:29:06.252Z,158838.81
2023-01-21T00:32:10.549Z,158840.09
2023-01-21T00:35:14.937Z,158827.13
2023-01-21T00:38:19.072Z,158825.78
2023-01-21T00:41:26.524Z,158834.91
2023-01-21T00:44:30.702Z,158846.63
2023-01-21T00:47:34.777Z,158857.03
2023-01-21T00:50:39.190Z,158847.91
2023-01-21T00:53:43.669Z,158844.00
2023-01-21T00:56:47.863Z,158859.66
2023-01-21T00:59:53.495Z,158836.19
2023-01-21T01:02:57.386Z,158841.41
2023-01-21T01:06:06.611Z,158815.34
2023-01-21T01:09:12.861Z,158804.97
2023-01-21T01:12:17.093Z,158812.78
2023-01-21T01:15:21.216Z,158832.28
2023-01-21T01:18:26.232Z,158815.34
2023-01-21T01:21:30.469Z,158824.47
2023-01-21T01:24:34.387Z,158797.16
2023-01-21T01:27:38.648Z,158798.44
2023-01-21T01:30:42.917Z,158801.06
2023-01-21T01:33:47.680Z,158816.66
2023-01-21T01:36:51.727Z,158794.53
2023-01-21T01:39:55.604Z,158797.16
2023-01-21T01:43:00.193Z,158781.56
2023-01-21T01:46:04.306Z,158793.25
2023-01-21T01:49:17.139Z,158801.06
2023-01-21T01:52:22.794Z,158793.25
2023-01-21T01:55:29.117Z,158811.44
2023-01-21T01:58:33.664Z,158804.97
2023-01-21T02:01:37.980Z,158810.19
2023-01-21T02:04:47.034Z,158799.75
2023-01-21T02:07:51.201Z,158808.88
2023-01-21T02:10:56.609Z,158802.38
2023-01-21T02:14:01.295Z,158786.72
2023-01-21T02:17:27.525Z,158745.06
2023-01-21T02:21:03.548Z,158743.78
2023-01-21T02:24:26.722Z,158725.56
2023-01-21T02:27:42.737Z,158716.44
2023-01-21T02:31:03.756Z,158715.16
2023-01-21T02:34:23.349Z,158725.56
2023-01-21T02:37:39.020Z,158733.34
2023-01-21T02:41:00.142Z,158742.47
2023-01-21T02:44:12.454Z,158724.25
2023-01-21T02:47:28.512Z,158737.25
2023-01-21T02:50:45.286Z,158729.44
2023-01-21T02:53:49.496Z,158728.13
2023-01-21T02:56:53.826Z,158706.03
2023-01-21T03:00:00.216Z,158716.44
2023-01-21T03:03:23.232Z,158736.00
2023-01-21T03:06:37.378Z,158729.44
2023-01-21T03:09:42.125Z,158716.44
2023-01-21T03:12:55.747Z,158724.25
2023-01-21T03:16:18.694Z,158720.34
2023-01-21T03:19:43.031Z,158726.88
2023-01-21T03:22:50.893Z,158680.06
2023-01-21T03:25:56.183Z,158682.69
2023-01-21T03:29:06.059Z,158719.06
2023-01-21T03:32:13.536Z,158702.16
2023-01-21T03:35:26.643Z,158706.03
2023-01-21T03:38:38.684Z,158713.84
2023-01-21T03:41:42.793Z,158682.69
2023-01-21T03:44:47.099Z,158654.00
2023-01-21T03:47:57.752Z,158630.59
2023-01-21T03:51:17.611Z,158599.41
2023-01-21T03:54:22.122Z,158615.00
2023-01-21T03:57:25.992Z,158612.44
2023-01-21T04:00:30.378Z,158622.81
2023-01-21T04:03:35.010Z,158638.41
2023-01-21T04:06:38.941Z,158626.72
2023-01-21T04:09:43.168Z,158590.28
2023-01-21T04:12:47.562Z,158595.50
2023-01-21T04:15:51.454Z,158572.06
2023-01-21T04:18:55.495Z,158582.50
2023-01-21T04:21:59.703Z,158578.59
2023-01-21T04:25:05.210Z,158572.06
2023-01-21T04:28:09.351Z,158578.59
2023-01-21T04:31:13.683Z,158585.06
2023-01-21T04:34:17.970Z,158535.66
2023-01-21T04:37:22.127Z,158539.53
2023-01-21T04:40:26.098Z,158544.75
2023-01-21T04:43:30.433Z,158542.19
2023-01-21T04:46:34.660Z,158555.16
2023-01-21T04:49:39.023Z,158565.56
2023-01-21T04:52:43.342Z,158568.16
2023-01-21T04:55:47.229Z,158575.97
2023-01-21T04:58:51.225Z,158563.00
2023-01-21T05:01:55.338Z,158577.28
2023-01-21T05:04:59.587Z,158573.38
2023-01-21T05:08:03.693Z,158551.25
2023-01-21T05:11:09.413Z,158564.25
2023-01-21T05:14:13.700Z,158574.69
2023-01-21T05:17:17.539Z,158570.78
2023-01-21T05:20:21.834Z,158575.97
2023-01-21T05:23:25.805Z,158587.72
2023-01-21T05:26:29.905Z,158573.38
2023-01-21T05:29:34.294Z,158565.56
2023-01-21T05:32:38.689Z,158544.75
2023-01-21T05:35:42.789Z,158539.53
2023-01-21T05:38:46.721Z,158542.19
2023-01-21T05:41:50.832Z,158536.97
2023-01-21T05:44:54.970Z,158555.16
2023-01-21T05:47:59.172Z,158551.25
2023-01-21T05:51:02.958Z,158538.28
2023-01-21T05:54:06.991Z,158538.28
2023-01-21T05:57:11.339Z,158551.25
2023-01-21T06:00:16.439Z,158555.16
2023-01-21T06:03:20.464Z,158546.06
2023-01-21T06:06:24.747Z,158563.00
2023-01-21T06:09:28.913Z,158560.34
2023-01-21T06:12:33.191Z,158569.47
2023-01-21T06:15:37.416Z,158587.72
2023-01-21T06:18:41.440Z,158598.09
2023-01-21T06:21:45.399Z,158587.72
2023-01-21T06:24:49.621Z,158599.41
2023-01-21T06:27:55.606Z,158604.56
2023-01-21T06:30:59.716Z,158613.69
2023-01-21T06:34:03.840Z,158620.22
2023-01-21T06:37:07.986Z,158617.59
2023-01-21T06:40:13.047Z,158609.78
2023-01-21T06:43:17.231Z,158628.03
2023-01-21T06:46:21.698Z,158637.16
2023-01-21T06:49:25.951Z,158644.94
2023-01-21T06:52:29.891Z,158655.34
2023-01-21T06:55:34.106Z,158655.34
2023-01-21T06:58:38.431Z,158669.66
2023-01-21T07:01:42.356Z,158680.06
2023-01-21T07:04:48.281Z,158667.03
2023-01-21T07:07:56.620Z,158693.03
2023-01-21T07:11:00.765Z,158690.50
2023-01-21T07:14:04.864Z,158687.84
2023-01-21T07:17:08.911Z,158709.94
2023-01-21T07:20:13.350Z,158716.44
2023-01-21T07:23:17.780Z,158725.56
2023-01-21T07:26:21.829Z,158716.44
2023-01-21T07:29:27.890Z,158732.09
2023-01-21T07:32:31.911Z,158750.28
2023-01-21T07:35:36.247Z,158742.47
2023-01-21T07:38:40.575Z,158743.78
2023-01-21T07:41:44.531Z,158736.00
2023-01-21T07:44:48.841Z,158739.88
2023-01-21T07:47:53.091Z,158750.28
2023-01-21T07:51:00.845Z,158752.88
2023-01-21T07:54:05.070Z,158737.25
2023-01-21T07:57:09.386Z,158741.16
2023-01-21T08:00:14.199Z,158736.00
2023-01-21T08:03:21.807Z,158738.56
2023-01-21T08:06:26.351Z,158736.00
2023-01-21T08:09:30.145Z,158742.47
2023-01-21T08:12:34.450Z,158754.19
2023-01-21T08:15:38.596Z,158748.97
2023-01-21T08:18:42.275Z,158768.53
2023-01-21T08:21:46.152Z,158775.00
2023-01-21T08:24:50.152Z,158772.44
2023-01-21T08:27:54.033Z,158776.31
2023-01-21T08:31:09.385Z,158784.13
2023-01-21T08:34:13.255Z,158759.41
2023-01-21T08:37:17.332Z,158750.28
2023-01-21T08:40:21.495Z,158769.78
2023-01-21T08:43:26.713Z,158776.31
2023-01-21T08:46:30.638Z,158789.34
2023-01-21T08:49:34.613Z,158780.22
2023-01-21T08:52:39.073Z,158780.22
2023-01-21T08:55:43.078Z,158780.22
2023-01-21T08:58:46.891Z,158776.31
2023-01-21T09:01:51.068Z,158802.38
2023-01-21T09:04:55.040Z,158814.09
2023-01-21T09:07:59.450Z,158827.13
2023-01-21T09:11:06.813Z,158833.59
2023-01-21T09:14:11.189Z,158841.41
2023-01-21T09:17:15.338Z,158857.03
2023-01-21T09:20:19.389Z,158863.56
2023-01-21T09:23:26.191Z,158859.66
2023-01-21T09:26:30.129Z,158885.66
2023-01-21T09:29:34.702Z,158873.94
2023-01-21T09:32:38.449Z,158871.38
2023-01-21T09:35:42.660Z,158877.84
2023-01-21T09:38:48.478Z,158885.66
2023-01-21T09:41:56.189Z,158922.13
2023-01-21T09:45:01.627Z,158944.28
2023-01-21T09:48:07.240Z,158929.97
2023-01-21T09:51:25.533Z,158927.34
2023-01-21T09:54:35.763Z,158941.69
2023-01-21T09:57:45.687Z,158935.16
2023-01-21T10:00:56.247Z,158963.75
2023-01-21T10:04:33.095Z,158957.25
2023-01-21T10:07:48.494Z,158967.66
2023-01-21T10:11:05.840Z,158984.59
2023-01-21T10:14:38.544Z,158996.34
2023-01-21T10:18:00.519Z,159010.66
2023-01-21T10:21:13.624Z,158996.34
2023-01-21T10:24:25.679Z,158991.13
2023-01-21T10:27:35.276Z,159001.53
2023-01-21T10:30:43.360Z,159043.22
2023-01-21T10:33:48.150Z,159096.56
2023-01-21T10:37:01.041Z,159071.88
2023-01-21T10:40:46.291Z,159086.22
2023-01-21T10:44:09.831Z,159062.75
2023-01-21T10:47:29.704Z,159078.41
2023-01-21T10:50:45.678Z,159074.50
2023-01-21T10:53:59.178Z,159092.66
2023-01-21T10:57:48.434Z,159130.47
2023-01-21T11:00:54.924Z,159114.84
2023-01-21T11:04:04.228Z,159123.97
2023-01-21T11:07:12.640Z,159118.75
2023-01-21T11:10:22.294Z,159112.19
2023-01-21T11:13:26.428Z,159113.53
2023-01-21T11:16:39.503Z,159103.13
2023-01-21T11:19:58.261Z,159107.03
2023-01-21T11:23:04.827Z,159082.31
2023-01-21T11:26:23.160Z,159100.47
2023-01-21T11:29:39.304Z,159120.06
2023-01-21T11:32:43.175Z,159110.94
2023-01-21T11:35:47.662Z,159088.75
2023-01-21T11:39:01.821Z,159100.47
2023-01-21T11:42:17.333Z,159117.41
2023-01-21T11:45:30.551Z,159140.88
2023-01-21T11:48:35.333Z,159177.41
2023-01-21T11:51:41.056Z,159165.63
2023-01-21T11:54:47.072Z,159165.63
2023-01-21T11:57:54.784Z,159159.13
2023-01-21T12:01:05.677Z,159160.44
2023-01-21T12:04:14.666Z,159196.94
2023-01-21T12:07:26.735Z,159221.66
2023-01-21T12:10:45.751Z,159243.81
2023-01-21T12:14:26.596Z,159268.59
2023-01-21T12:17:58.368Z,159322.00
2023-01-21T12:21:14.837Z,159310.22
2023-01-21T12:24:24.647Z,159315.44
2023-01-21T12:27:37.550Z,159325.91
2023-01-21T12:30:54.483Z,159320.66
2023-01-21T12:34:09.309Z,159318.09
2023-01-21T12:37:28.328Z,159294.56
2023-01-21T12:41:14.118Z,159315.44
2023-01-21T12:44:26.819Z,159310.22
2023-01-21T12:47:40.692Z,159301.13
2023-01-21T12:50:54.433Z,159299.81
2023-01-21T12:54:09.665Z,159293.31
2023-01-21T12:57:36.891Z,159318.09
2023-01-21T13:00:48.569Z,159310.22
2023-01-21T13:04:04.973Z,159305.03
2023-01-21T13:07:29.477Z,159323.25
2023-01-21T13:10:37.265Z,159315.44
2023-01-21T13:13:49.966Z,159333.72
2023-01-21T13:16:59.195Z,159316.75
2023-01-21T13:20:14.428Z,159323.25
2023-01-21T13:23:26.742Z,159310.22
2023-01-21T13:26:42.178Z,159307.63
2023-01-21T13:29:59.585Z,159285.44
2023-01-21T13:33:15.707Z,159272.50
2023-01-21T13:36:55.745Z,159276.41
2023-01-21T13:40:18.502Z,159286.75
2023-01-21T13:43:29.992Z,159286.75
2023-01-21T13:46:56.889Z,159276.41
2023-01-21T13:50:04.369Z,159239.91
2023-01-21T13:53:32.928Z,159229.47
2023-01-21T13:56:57.747Z,159217.72
2023-01-21T14:00:12.781Z,159224.22
2023-01-21T14:03:25.922Z,159213.81
2023-01-21T14:06:46.116Z,159224.22
2023-01-21T14:10:09.467Z,159220.31
2023-01-21T14:13:26.843Z,159238.59
2023-01-21T14:16:40.339Z,159202.09
2023-01-21T14:20:05.499Z,159194.34
2023-01-21T14:23:25.100Z,159202.09
2023-01-21T14:26:52.171Z,159187.78
2023-01-21T14:30:06.202Z,159191.72
2023-01-21T14:33:13.142Z,159182.56
2023-01-21T14:36:39.325Z,159187.78
2023-01-21T14:39:58.568Z,159208.59
2023-01-21T14:43:02.605Z,159190.44
2023-01-21T14:46:31.020Z,159176.06
2023-01-21T14:49:39.913Z,159174.75
2023-01-21T14:52:45.705Z,159159.13
2023-01-21T14:56:05.894Z,159164.34
2023-01-21T14:59:32.050Z,159156.53
2023-01-21T15:02:42.656Z,159160.44
2023-01-21T15:05:52.672Z,159161.72
2023-01-21T15:09:00.145Z,159151.31
2023-01-21T15:12:16.060Z,159142.19
2023-01-21T15:15:36.800Z,159168.25
2023-01-21T15:18:56.643Z,159159.13
2023-01-21T15:22:20.240Z,159148.72
2023-01-21T15:25:31.534Z,159152.63
2023-01-21T15:28:46.161Z,159134.38
2023-01-21T15:31:50.664Z,159140.88
2023-01-21T15:34:59.505Z,159142.19
2023-01-21T15:38:14.816Z,159144.81
2023-01-21T15:41:39.926Z,159138.28
2023-01-21T15:45:12.514Z,159156.53
2023-01-21T15:48:53.360Z,159146.09
2023-01-21T15:52:03.558Z,159133.06
2023-01-21T15:55:10.539Z,159125.25
2023-01-21T15:58:32.483Z,159114.84
2023-01-21T16:01:38.794Z,159096.56
2023-01-21T16:05:01.674Z,159090.06
2023-01-21T16:08:18.186Z,159100.47
2023-01-21T16:11:46.917Z,159081.00
2023-01-21T16:15:01.196Z,159074.50
2023-01-21T16:18:17.277Z,159061.47
2023-01-21T16:21:50.481Z,159052.34
2023-01-21T16:25:00.411Z,159019.78
2023-01-21T16:28:04.550Z,159027.59
2023-01-21T16:31:08.953Z,159018.47
2023-01-21T16:34:13.180Z,159036.72
2023-01-21T16:37:20.046Z,159010.66
2023-01-21T16:40:24.055Z,159038.00
2023-01-21T16:43:28.655Z,158998.94
2023-01-21T16:46:37.398Z,159010.66
2023-01-21T16:49:43.371Z,159005.44
2023-01-21T16:52:47.855Z,158996.34
2023-01-21T16:55:55.109Z,159004.16
2023-01-21T16:59:02.761Z,159010.66
2023-01-21T17:02:28.161Z,159009.34
2023-01-21T17:05:34.925Z,159021.09
2023-01-21T17:08:39.851Z,159013.25
2023-01-21T17:11:46.721Z,159021.09
2023-01-21T17:14:58.164Z,159018.47
2023-01-21T17:18:03.917Z,159006.75
2023-01-21T17:21:22.600Z,159010.66
2023-01-21T17:24:31.414Z,158987.22
2023-01-21T17:27:41.614Z,158987.22
2023-01-21T17:30:45.952Z,158982.00
2023-01-21T17:34:10.877Z,158980.69
2023-01-21T17:37:43.384Z,158987.22
2023-01-21T17:41:03.734Z,158976.78
2023-01-21T17:44:18.620Z,158957.25
2023-01-21T17:47:35.571Z,158966.38
2023-01-21T17:50:47.277Z,158984.59
2023-01-21T17:53:56.355Z,158970.28
2023-01-21T17:57:00.515Z,158968.97
2023-01-21T18:00:26.506Z,158989.81
2023-01-21T18:03:30.789Z,158995.03
2023-01-21T18:06:35.760Z,158997.63
2023-01-21T18:09:39.586Z,158978.09
2023-01-21T18:12:43.757Z,158974.19
2023-01-21T18:15:51.821Z,158967.66
2023-01-21T18:18:56.241Z,158953.34
2023-01-21T18:22:03.340Z,158963.75
2023-01-21T18:25:07.303Z,158961.16
2023-01-21T18:28:18.602Z,158974.19
2023-01-21T18:31:23.044Z,158946.84
2023-01-21T18:34:28.983Z,158954.66
2023-01-21T18:37:33.289Z,158944.28
2023-01-21T18:40:37.219Z,158953.34
2023-01-21T18:43:41.834Z,158958.56
2023-01-21T18:46:46.107Z,158974.19
2023-01-21T18:49:50.899Z,158957.25
2023-01-21T18:52:55.741Z,158976.78
2023-01-21T18:56:00.193Z,158988.50
2023-01-21T18:59:13.531Z,158998.94
2023-01-21T19:02:19.767Z,158982.00
2023-01-21T19:05:26.297Z,158974.19
2023-01-21T19:08:30.314Z,158983.31
2023-01-21T19:11:34.321Z,158983.31
2023-01-21T19:14:38.536Z,159004.16
2023-01-21T19:17:42.907Z,158995.03
2023-01-21T19:20:46.823Z,158982.00
2023-01-21T19:23:50.993Z,158968.97
2023-01-21T19:26:54.969Z,158980.69
2023-01-21T19:29:59.184Z,158970.28
2023-01-21T19:33:03.434Z,158966.38
2023-01-21T19:36:17.244Z,158989.81
2023-01-21T19:39:23.870Z,158975.50
2023-01-21T19:42:27.925Z,158987.22
2023-01-21T19:45:32.240Z,158983.31
2023-01-21T19:48:36.282Z,158972.88
2023-01-21T19:51:40.453Z,158982.00
2023-01-21T19:54:44.583Z,158970.28
2023-01-21T19:57:56.357Z,158978.09
2023-01-21T20:01:00.552Z,158972.88
2023-01-21T20:04:04.545Z,158971.56
2023-01-21T20:07:13.895Z,158984.59
2023-01-21T20:10:20.727Z,158995.03
2023-01-21T20:13:26.065Z,158988.50
2023-01-21T20:16:31.141Z,158992.41
2023-01-21T20:19:35.683Z,158979.41
2023-01-21T20:22:39.792Z,159013.25
2023-01-21T20:25:46.232Z,159005.44
2023-01-21T20:28:51.552Z,159005.44
2023-01-21T20:31:55.554Z,159002.84
2023-01-21T20:34:59.847Z,159008.06
2023-01-21T20:38:03.883Z,159014.56
2023-01-21T20:41:07.976Z,159015.88
2023-01-21T20:44:15.060Z,159017.16
2023-01-21T20:47:32.494Z,159001.53
2023-01-21T20:50:42.518Z,159006.75
2023-01-21T20:53:46.923Z,159013.25
2023-01-21T20:56:51.266Z,159011.97
2023-01-21T20:59:55.415Z,159018.47
2023-01-21T21:02:59.696Z,159022.38
2023-01-21T21:06:12.044Z,159019.78
2023-01-21T21:09:16.157Z,158988.50
2023-01-21T21:12:20.326Z,158985.91
2023-01-21T21:15:32.497Z,159009.34
2023-01-21T21:18:36.573Z,158997.63
2023-01-21T21:21:40.591Z,159031.50
2023-01-21T21:24:44.861Z,159021.09
2023-01-21T21:27:49.306Z,159014.56
2023-01-21T21:30:53.121Z,159014.56
2023-01-21T21:33:57.146Z,158997.63
2023-01-21T21:37:01.570Z,159009.34
2023-01-21T21:40:07.525Z,159010.66
2023-01-21T21:43:38.744Z,159021.09
2023-01-21T21:47:01.543Z,159026.28
2023-01-21T21:50:05.847Z,159038.00
2023-01-21T21:53:11.217Z,159028.91
2023-01-21T21:56:17.819Z,159009.34
2023-01-21T21:59:21.684Z,159006.75
2023-01-21T22:02:25.802Z,159017.16
2023-01-21T22:05:30.242Z,159006.75
2023-01-21T22:08:36.310Z,159002.84
2023-01-21T22:11:40.697Z,159005.44
2023-01-21T22:14:44.914Z,159009.34
2023-01-21T22:17:48.932Z,159009.34
2023-01-21T22:20:58.885Z,159027.59
2023-01-21T22:24:05.730Z,159039.31
2023-01-21T22:27:13.011Z,159031.50
2023-01-21T22:30:17.486Z,159051.03
2023-01-21T22:33:22.335Z,159035.41
2023-01-21T22:36:29.475Z,159036.72
2023-01-21T22:39:33.853Z,159049.75
2023-01-21T22:42:38.169Z,159038.00
2023-01-21T22:45:49.669Z,159010.66
2023-01-21T22:48:54.462Z,159011.97
2023-01-21T22:51:58.546Z,159011.97
2023-01-21T22:55:02.753Z,159010.66
2023-01-21T22:58:06.765Z,159018.47
2023-01-21T23:01:26.253Z,159036.72
2023-01-21T23:04:30.354Z,159014.56
2023-01-21T23:07:34.489Z,159017.16
2023-01-21T23:10:40.234Z,159027.59
2023-01-21T23:13:44.894Z,159031.50
2023-01-21T23:16:48.719Z,159036.72
2023-01-21T23:19:53.059Z,159019.78
2023-01-21T23:22:58.470Z,159036.72
2023-01-21T23:26:04.533Z,159021.09
2023-01-21T23:29:08.399Z,159026.28
2023-01-21T23:32:12.525Z,159011.97
2023-01-21T23:35:16.922Z,159019.78
2023-01-21T23:38:21.075Z,159038.00
2023-01-21T23:41:25.107Z,159008.06
2023-01-21T23:44:29.451Z,159031.50
2023-01-21T23:47:33.321Z,159017.16
2023-01-21T23:50:37.630Z,159015.88
2023-01-21T23:53:42.098Z,159015.88
2023-01-21T23:56:46.418Z,159025.00
2023-01-21T23:59:50.527Z,159028.91
